Time;durP1;ratioP1;P1;durP2;ratioP2;P2;SDS_P1;SDS_P2;PMS_P1;PMS_P2;Temp;Humidity;BMP_temperature;BMP_pressure;BME280_temperature;BME280_humidity;BME280_pressure;Samples;Min_cycle;Max_cycle;Signal;HPM_P1;HPM_P2
2024/03/22 00:01:47;;;;;;;4.28;3.88;;;;;;;21.42;39.92;101971.28;5019774;28;20469;-75
2024/03/22 00:04:14;;;;;;;3.88;3.47;;;;;;;21.41;39.82;101966.13;5032227;28;20303;-76
2024/03/22 00:06:41;;;;;;;4.15;3.22;;;;;;;21.38;39.86;101956.69;5031633;28;20381;-75
2024/03/22 00:09:07;;;;;;;4.13;3.72;;;;;;;21.39;39.75;101957.53;5029379;28;20049;-75
2024/03/22 00:11:32;;;;;;;4.22;3.40;;;;;;;21.38;39.79;101956.69;5024394;28;20045;-75
2024/03/22 00:13:58;;;;;;;4.43;4.03;;;;;;;21.35;40.00;101948.22;5025429;28;20041;-76
2024/03/22 00:16:24;;;;;;;3.88;3.38;;;;;;;21.31;39.71;101953.03;5023478;28;20036;-76
2024/03/22 00:18:50;;;;;;;4.03;3.55;;;;;;;21.35;39.73;101964.13;5023597;28;20033;-75
2024/03/22 00:21:15;;;;;;;4.00;3.60;;;;;;;21.35;39.61;101956.16;5024823;28;20053;-75
2024/03/22 00:23:41;;;;;;;4.65;3.58;;;;;;;21.32;40.03;101951.19;5031749;28;20029;-76
2024/03/22 00:26:07;;;;;;;3.80;3.50;;;;;;;21.32;39.94;101954.69;5018481;28;20095;-75
2024/03/22 00:28:33;;;;;;;4.25;3.80;;;;;;;21.17;39.82;101923.66;5021453;28;20032;-75
2024/03/22 00:30:58;;;;;;;3.50;3.20;;;;;;;21.27;39.79;101935.81;5019700;28;20057;-75
2024/03/22 00:33:24;;;;;;;3.75;3.40;;;;;;;21.30;39.63;101932.00;5022725;28;20040;-75
2024/03/22 00:35:50;;;;;;;4.43;3.85;;;;;;;21.28;40.01;101929.50;5022761;28;20071;-76
2024/03/22 00:38:15;;;;;;;4.30;3.90;;;;;;;21.29;39.87;101928.50;5023194;28;20061;-75
2024/03/22 00:40:41;;;;;;;4.15;3.60;;;;;;;21.27;39.97;101911.97;5023355;28;20560;-75
2024/03/22 00:43:07;;;;;;;4.82;3.85;;;;;;;21.29;39.74;101903.84;5031847;28;20501;-75
2024/03/22 00:45:32;;;;;;;4.22;3.80;;;;;;;21.24;39.75;101907.00;5029536;28;20029;-75
2024/03/22 00:47:58;;;;;;;5.03;4.30;;;;;;;21.26;39.86;101898.88;5030802;28;20040;-75
2024/03/22 00:50:23;;;;;;;3.58;3.20;;;;;;;21.24;39.80;101888.44;5027676;28;20041;-75
2024/03/22 00:52:52;;;;;;;5.05;3.83;;;;;;;21.17;39.87;101878.63;5029702;28;20044;-75
2024/03/22 00:55:18;;;;;;;5.45;4.05;;;;;;;21.24;39.74;101891.09;5028335;28;20040;-76
2024/03/22 00:57:44;;;;;;;4.18;3.78;;;;;;;21.19;40.09;101866.91;5036692;28;20046;-76
2024/03/22 01:00:10;;;;;;;4.32;3.78;;;;;;;21.22;39.74;101873.69;5026457;28;20040;-75
2024/03/22 01:02:35;;;;;;;4.57;3.90;;;;;;;21.19;39.90;101869.53;5027912;28;20397;-75
2024/03/22 01:05:01;;;;;;;4.65;3.90;;;;;;;21.23;39.98;101851.50;5035413;28;20049;-75
2024/03/22 01:07:26;;;;;;;4.20;3.80;;;;;;;21.22;39.75;101852.50;5025881;28;20072;-76
2024/03/22 01:10:04;;;;;;;5.63;4.00;;;;;;;21.18;40.00;101846.66;5034421;28;20045;-75
2024/03/22 01:12:30;;;;;;;4.50;3.92;;;;;;;21.17;39.97;101845.00;5031903;28;20040;-75
2024/03/22 01:14:56;;;;;;;5.28;4.30;;;;;;;21.17;39.93;101852.13;5035418;28;20029;-75
2024/03/22 01:17:22;;;;;;;4.18;3.78;;;;;;;21.17;40.06;101847.66;5038283;28;20665;-74
2024/03/22 01:19:48;;;;;;;4.10;3.65;;;;;;;21.21;40.13;101845.53;5017572;28;20033;-76
2024/03/22 01:22:13;;;;;;;3.92;3.53;;;;;;;21.18;39.79;101835.25;5035515;28;20802;-74
2024/03/22 01:24:39;;;;;;;5.28;3.97;;;;;;;21.17;39.70;101836.25;5043399;28;20041;-75
2024/03/22 01:27:05;;;;;;;4.57;3.72;;;;;;;21.17;39.75;101829.13;5026882;28;20060;-75
2024/03/22 01:29:31;;;;;;;4.50;3.72;;;;;;;21.13;40.10;101822.50;5029711;28;20527;-75
2024/03/22 01:31:58;;;;;;;4.18;3.80;;;;;;;21.14;40.11;101826.81;5024076;28;20037;-75
2024/03/22 01:34:24;;;;;;;4.00;3.60;;;;;;;21.13;40.08;101825.16;5029687;28;20092;-75
2024/03/22 01:36:51;;;;;;;4.50;4.10;;;;;;;21.09;39.83;101814.06;5027952;28;20041;-75
2024/03/22 01:39:16;;;;;;;4.28;3.85;;;;;;;21.11;39.85;101817.38;5028170;28;20057;-76
2024/03/22 01:41:43;;;;;;;4.25;3.85;;;;;;;21.11;40.11;101822.66;5027214;28;20060;-75
2024/03/22 01:44:09;;;;;;;4.85;4.07;;;;;;;21.09;39.97;101813.22;5027928;28;20042;-76
2024/03/22 01:46:35;;;;;;;4.22;3.72;;;;;;;21.10;40.08;101806.94;5035745;28;20484;-75
2024/03/22 01:49:01;;;;;;;4.53;3.80;;;;;;;21.08;39.86;101814.22;5026592;28;20041;-75
2024/03/22 01:51:26;;;;;;;4.47;4.00;;;;;;;21.02;40.25;101810.44;5022844;28;20402;-74
2024/03/22 01:53:53;;;;;;;4.45;4.05;;;;;;;21.07;39.93;101813.41;5028450;28;20480;-74
2024/03/22 01:56:19;;;;;;;4.05;3.65;;;;;;;21.03;40.10;101801.47;5026656;28;20053;-73
2024/03/22 01:58:45;;;;;;;4.68;4.25;;;;;;;21.08;39.77;101793.03;5023558;28;20206;-74
2024/03/22 02:01:11;;;;;;;5.38;4.50;;;;;;;21.06;40.11;101798.50;5030783;28;20094;-75
2024/03/22 02:03:36;;;;;;;4.22;3.83;;;;;;;21.05;39.93;101793.38;5028966;28;20045;-75
2024/03/22 02:06:02;;;;;;;4.15;3.75;;;;;;;21.04;40.16;101789.06;5026065;28;20495;-74
2024/03/22 02:08:28;;;;;;;4.25;3.80;;;;;;;21.02;40.15;101788.41;5027701;28;20053;-75
2024/03/22 02:10:53;;;;;;;4.50;4.10;;;;;;;21.04;40.11;101792.53;5022959;28;20045;-74
2024/03/22 02:13:19;;;;;;;4.93;4.30;;;;;;;21.04;40.17;101781.13;5024301;28;20051;-75
2024/03/22 02:15:44;;;;;;;4.88;4.10;;;;;;;21.02;40.09;101783.94;5023613;28;20064;-75
2024/03/22 02:18:10;;;;;;;4.47;4.05;;;;;;;21.02;39.92;101773.34;5022446;28;20030;-76
2024/03/22 02:20:35;;;;;;;4.30;3.90;;;;;;;21.02;40.02;101776.00;5026701;28;20057;-75
2024/03/22 02:23:01;;;;;;;4.75;4.28;;;;;;;21.02;40.04;101762.75;5029003;28;20041;-75
2024/03/22 02:25:26;;;;;;;5.20;3.95;;;;;;;20.98;39.84;101756.13;5032447;28;20099;-75
2024/03/22 02:27:52;;;;;;;4.90;4.40;;;;;;;20.90;39.98;101742.06;5023820;28;20045;-74
2024/03/22 02:30:17;;;;;;;4.28;3.80;;;;;;;21.01;40.02;101752.34;5024987;28;20049;-75
2024/03/22 02:32:43;;;;;;;5.10;4.25;;;;;;;21.00;39.83;101748.00;5025451;28;20030;-74
2024/03/22 02:35:09;;;;;;;4.65;4.15;;;;;;;20.99;40.02;101751.66;5026236;28;20095;-75
2024/03/22 02:37:34;;;;;;;4.60;4.20;;;;;;;20.97;40.13;101746.50;5028473;28;20064;-73
2024/03/22 02:40:00;;;;;;;4.47;4.07;;;;;;;20.97;39.97;101737.75;5019838;28;20113;-74
2024/03/22 02:42:25;;;;;;;5.30;4.80;;;;;;;20.98;40.20;101750.81;5023418;28;20072;-74
2024/03/22 02:44:52;;;;;;;4.82;4.18;;;;;;;20.98;40.43;101744.69;5034913;28;20053;-75
2024/03/22 02:47:18;;;;;;;5.13;4.63;;;;;;;20.96;40.24;101742.22;5029467;28;20102;-74
2024/03/22 02:49:43;;;;;;;5.32;4.82;;;;;;;20.97;40.36;101741.22;5032341;28;20140;-75
2024/03/22 02:52:09;;;;;;;5.18;4.68;;;;;;;20.96;40.11;101736.09;5016841;28;20410;-74
2024/03/22 02:54:34;;;;;;;5.05;4.55;;;;;;;20.95;40.12;101734.44;5021790;28;20042;-75
2024/03/22 02:57:01;;;;;;;5.25;4.75;;;;;;;20.98;40.04;101737.56;5022279;28;20037;-75
2024/03/22 02:59:27;;;;;;;5.68;4.63;;;;;;;20.96;40.09;101728.97;5029390;28;20071;-74
2024/03/22 03:01:53;;;;;;;4.32;3.92;;;;;;;20.84;40.22;101706.50;5020731;28;20122;-73
2024/03/22 03:04:18;;;;;;;4.80;4.30;;;;;;;20.93;40.10;101718.72;5035236;28;20037;-74
2024/03/22 03:06:45;;;;;;;5.38;4.80;;;;;;;20.95;40.32;101705.31;5022534;28;20611;-74
2024/03/22 03:09:11;;;;;;;6.18;5.10;;;;;;;20.92;40.13;101711.78;5023140;28;20095;-74
2024/03/22 03:11:39;;;;;;;5.25;4.53;;;;;;;20.92;40.07;101705.66;5025521;28;20030;-74
2024/03/22 03:14:05;;;;;;;5.28;4.78;;;;;;;20.91;40.16;101698.69;5027594;28;20535;-74
2024/03/22 03:16:31;;;;;;;5.38;4.70;;;;;;;20.90;40.43;101683.81;5019959;28;20038;-74
2024/03/22 03:18:56;;;;;;;4.70;4.20;;;;;;;20.91;40.24;101682.81;5031730;28;20057;-74
2024/03/22 03:21:22;;;;;;;5.75;5.00;;;;;;;20.91;39.93;101674.88;5020065;28;20053;-73
2024/03/22 03:23:47;;;;;;;5.70;5.10;;;;;;;20.89;40.33;101667.09;5024208;28;20072;-74
2024/03/22 03:26:13;;;;;;;5.82;4.90;;;;;;;20.89;40.17;101672.41;5021548;28;20062;-74
2024/03/22 03:28:39;;;;;;;5.95;5.35;;;;;;;20.89;40.40;101669.75;4999970;28;20047;-74
2024/03/22 03:31:05;;;;;;;6.32;4.93;;;;;;;20.89;40.35;101666.28;5027123;28;20045;-74
2024/03/22 03:33:31;;;;;;;6.07;5.47;;;;;;;20.87;40.42;101660.31;5019945;28;20022;-74
2024/03/22 03:35:56;;;;;;;5.82;4.75;;;;;;;20.86;40.37;101656.03;5026938;28;20686;-74
2024/03/22 03:38:22;;;;;;;5.55;4.85;;;;;;;20.88;40.26;101659.31;5021755;28;20769;-75
2024/03/22 03:40:48;;;;;;;5.63;4.75;;;;;;;20.86;40.18;101653.38;5028628;28;20037;-74
2024/03/22 03:43:14;;;;;;;5.93;5.20;;;;;;;20.87;40.39;101650.56;5023117;28;20551;-74
2024/03/22 03:45:39;;;;;;;6.10;5.50;;;;;;;20.86;40.26;101648.06;5023089;28;20330;-74
2024/03/22 03:48:05;;;;;;;5.88;4.82;;;;;;;20.76;40.45;101633.19;5025785;28;20135;-74
2024/03/22 03:50:30;;;;;;;5.63;5.10;;;;;;;20.84;40.19;101647.41;5019827;28;20037;-74
2024/03/22 03:52:56;;;;;;;5.35;4.75;;;;;;;20.85;40.37;101647.25;5021562;28;20042;-74
2024/03/22 03:55:24;;;;;;;4.93;4.43;;;;;;;20.85;40.21;101638.50;5024129;28;20647;-73
2024/03/22 03:57:50;;;;;;;7.63;5.40;;;;;;;20.81;40.41;101635.31;5019821;28;20618;-74
2024/03/22 04:00:17;;;;;;;5.32;4.72;;;;;;;20.81;40.46;101637.97;5026578;28;20045;-74
2024/03/22 04:02:43;;;;;;;5.90;5.18;;;;;;;20.83;40.44;101641.31;5018191;28;20441;-75
2024/03/22 04:05:08;;;;;;;6.38;5.65;;;;;;;20.83;40.40;101632.53;5021880;28;20107;-73
2024/03/22 04:07:34;;;;;;;5.68;5.07;;;;;;;20.82;40.33;101631.69;5025618;28;20064;-74
2024/03/22 04:10:02;;;;;;;6.55;5.30;;;;;;;20.77;40.47;101626.88;5022055;28;20044;-74
2024/03/22 04:12:28;;;;;;;6.07;5.25;;;;;;;20.81;40.40;101630.03;5023333;28;20058;-75
2024/03/22 04:14:54;;;;;;;6.60;5.55;;;;;;;20.80;40.39;101631.03;5025985;28;20140;-74
2024/03/22 04:17:19;;;;;;;6.35;5.10;;;;;;;20.81;40.36;101630.03;5023975;28;20171;-74
2024/03/22 04:19:45;;;;;;;5.63;4.78;;;;;;;20.79;40.23;101624.06;5020983;28;20034;-74
2024/03/22 04:22:10;;;;;;;6.45;5.53;;;;;;;20.77;40.38;101632.19;5023732;28;20049;-72
2024/03/22 04:24:36;;;;;;;6.10;5.47;;;;;;;20.77;40.56;101636.66;5026903;28;20056;-74
2024/03/22 04:27:02;;;;;;;6.38;5.13;;;;;;;20.75;40.33;101634.19;5016654;28;20091;-74
2024/03/22 04:29:27;;;;;;;6.32;5.10;;;;;;;20.76;40.18;101638.47;5023057;28;20787;-74
2024/03/22 04:31:53;;;;;;;6.07;5.15;;;;;;;20.76;40.46;101640.28;5022545;28;20053;-74
2024/03/22 04:34:18;;;;;;;6.03;5.40;;;;;;;20.76;40.23;101632.34;5016650;28;20041;-75
2024/03/22 04:36:44;;;;;;;5.63;4.90;;;;;;;20.75;40.32;101623.59;5021154;28;21349;-74
2024/03/22 04:39:12;;;;;;;6.13;5.53;;;;;;;20.77;40.48;101621.59;5023252;28;20060;-74
2024/03/22 04:41:37;;;;;;;7.18;5.40;;;;;;;20.72;40.43;101605.41;5023592;28;20045;-74
2024/03/22 04:44:03;;;;;;;6.50;5.25;;;;;;;20.72;40.59;101605.41;5018140;28;20072;-74
2024/03/22 04:46:29;;;;;;;5.88;5.20;;;;;;;20.67;40.41;101597.13;5029332;28;20037;-74
2024/03/22 04:48:54;;;;;;;6.47;5.07;;;;;;;20.72;40.34;101597.47;5014093;28;20095;-74
2024/03/22 04:51:20;;;;;;;5.57;4.93;;;;;;;20.73;40.47;101587.69;5023922;28;20037;-74
2024/03/22 04:53:45;;;;;;;5.70;4.72;;;;;;;20.73;40.48;101588.53;5023394;28;20585;-74
2024/03/22 04:56:11;;;;;;;6.47;5.60;;;;;;;20.71;40.30;101581.75;5027603;28;20044;-74
2024/03/22 04:58:36;;;;;;;6.25;5.53;;;;;;;20.70;40.52;101572.16;5025913;28;20044;-74
2024/03/22 05:01:02;;;;;;;5.75;5.15;;;;;;;20.68;40.59;101566.22;5021768;28;20041;-74
2024/03/22 05:03:27;;;;;;;6.18;5.55;;;;;;;20.72;40.29;101556.94;5021442;28;20065;-74
2024/03/22 05:05:53;;;;;;;8.02;6.10;;;;;;;20.71;40.36;101555.28;5021192;28;20041;-74
2024/03/22 05:08:19;;;;;;;6.72;5.53;;;;;;;20.65;40.35;101570.03;5028321;28;20041;-74
2024/03/22 05:10:44;;;;;;;6.80;5.57;;;;;;;20.64;40.34;101557.75;5020665;28;20034;-74
2024/03/22 05:13:10;;;;;;;6.35;5.40;;;;;;;20.68;40.37;101564.38;5026061;28;20852;-74
2024/03/22 05:15:35;;;;;;;7.18;5.90;;;;;;;20.69;40.51;101573.16;5023198;28;20524;-75
2024/03/22 05:18:01;;;;;;;7.05;5.78;;;;;;;20.68;40.52;101567.03;5020894;28;20049;-74
2024/03/22 05:20:26;;;;;;;6.93;5.60;;;;;;;20.69;40.70;101581.09;5018614;28;20059;-74
2024/03/22 05:22:52;;;;;;;6.57;5.43;;;;;;;20.63;40.69;101579.09;5016814;28;20050;-74
2024/03/22 05:25:18;;;;;;;6.97;5.75;;;;;;;20.64;40.61;101578.09;5024006;28;20127;-74
2024/03/22 05:27:44;;;;;;;6.82;5.75;;;;;;;20.66;40.42;101589.38;5021727;28;20068;-74
2024/03/22 05:30:11;;;;;;;6.28;5.65;;;;;;;20.67;40.51;101583.09;5020206;28;20103;-74
2024/03/22 05:32:37;;;;;;;6.78;5.38;;;;;;;20.65;40.72;101590.38;5030313;28;20037;-75
2024/03/22 05:35:03;;;;;;;6.70;5.82;;;;;;;20.62;40.64;101598.63;5034614;28;20041;-75
2024/03/22 05:37:28;;;;;;;6.03;5.43;;;;;;;20.62;40.70;101590.66;5033377;28;20375;-73
2024/03/22 05:39:54;;;;;;;7.30;5.38;;;;;;;20.64;40.45;101581.56;5029902;28;20053;-75
2024/03/22 05:42:20;;;;;;;5.82;5.22;;;;;;;20.65;40.54;101583.25;5035632;28;20037;-74
2024/03/22 05:44:46;;;;;;;6.25;5.47;;;;;;;20.62;40.57;101583.56;5033197;28;20491;-75
2024/03/22 05:47:11;;;;;;;6.90;6.15;;;;;;;20.64;40.38;101592.16;5034584;28;20049;-74
2024/03/22 05:49:37;;;;;;;6.05;5.30;;;;;;;20.63;40.56;101584.38;5020233;28;20049;-74
2024/03/22 05:52:02;;;;;;;6.28;5.47;;;;;;;20.64;40.51;101586.03;5019819;28;20045;-74
2024/03/22 05:54:28;;;;;;;6.57;5.75;;;;;;;20.63;40.57;101587.03;5030564;28;20120;-74
2024/03/22 05:56:53;;;;;;;6.65;5.35;;;;;;;20.62;40.80;101580.91;5020984;28;20077;-75
2024/03/22 05:59:19;;;;;;;7.70;5.85;;;;;;;20.61;40.62;101560.75;5027521;28;20048;-74
2024/03/22 06:01:44;;;;;;;7.70;5.32;;;;;;;20.59;40.51;101553.97;5027716;28;20033;-74
2024/03/22 06:04:10;;;;;;;6.38;5.40;;;;;;;20.60;40.68;101556.44;5027887;28;20044;-74
2024/03/22 06:06:35;;;;;;;5.93;5.03;;;;;;;20.61;40.64;101558.09;5027423;28;20048;-75
2024/03/22 06:09:09;;;;;;;7.07;5.70;;;;;;;20.45;40.73;101532.47;5034787;28;20061;-74
2024/03/22 06:11:35;;;;;;;6.20;5.28;;;;;;;20.55;40.60;101556.13;5026883;28;20048;-74
2024/03/22 06:14:01;;;;;;;7.57;5.00;;;;;;;20.60;40.49;101558.25;5032255;28;20033;-74
2024/03/22 06:16:27;;;;;;;7.43;5.78;;;;;;;20.61;40.60;101551.97;5025344;28;20042;-74
2024/03/22 06:18:53;;;;;;;6.20;4.90;;;;;;;20.60;40.62;101551.16;5034999;28;20537;-74
2024/03/22 06:21:21;;;;;;;6.47;5.00;;;;;;;20.60;40.71;101561.72;5019319;28;20050;-74
2024/03/22 06:23:51;;;;;;;5.97;5.38;;;;;;;20.54;40.87;101540.41;5034879;28;20038;-75
2024/03/22 06:26:17;;;;;;;5.85;5.25;;;;;;;20.59;40.76;101559.25;5055859;28;20107;-74
2024/03/22 06:28:43;;;;;;;6.63;5.65;;;;;;;20.59;40.76;101561.91;5025708;28;20033;-74
2024/03/22 06:31:08;;;;;;;6.50;5.47;;;;;;;20.51;40.94;101549.53;5020168;28;20044;-74
2024/03/22 06:33:34;;;;;;;6.38;5.35;;;;;;;20.56;40.90;101554.31;5014568;28;20076;-74
2024/03/22 06:36:00;;;;;;;6.43;5.28;;;;;;;20.54;40.70;101540.41;5026969;28;20088;-74
2024/03/22 06:38:26;;;;;;;6.03;5.22;;;;;;;20.51;40.80;101546.88;5023461;28;20057;-75
2024/03/22 06:40:51;;;;;;;6.55;5.30;;;;;;;20.57;40.65;101556.78;5021823;28;20049;-74
2024/03/22 06:43:17;;;;;;;6.10;5.50;;;;;;;20.57;40.68;101555.97;5029778;28;20040;-74
2024/03/22 06:45:42;;;;;;;6.40;5.13;;;;;;;20.59;40.77;101562.72;5021164;28;20099;-74
2024/03/22 06:48:09;;;;;;;6.50;5.47;;;;;;;20.58;40.82;101550.50;5024814;28;20041;-75
2024/03/22 06:50:35;;;;;;;6.22;4.93;;;;;;;20.58;40.55;101550.50;5026550;28;20133;-74
2024/03/22 06:53:00;;;;;;;5.82;5.22;;;;;;;20.55;40.76;101545.53;5022879;28;20052;-74
2024/03/22 06:55:26;;;;;;;5.22;4.72;;;;;;;20.57;40.70;101546.19;5027203;28;20041;-75
2024/03/22 06:57:52;;;;;;;5.30;4.60;;;;;;;20.58;41.04;101547.03;5029231;28;20091;-73
2024/03/22 07:00:18;;;;;;;7.25;5.50;;;;;;;20.48;40.65;101536.63;5023823;28;20051;-74
2024/03/22 07:02:44;;;;;;;6.18;5.20;;;;;;;20.58;40.83;101544.38;5022341;28;20321;-74
2024/03/22 07:05:10;;;;;;;5.25;4.75;;;;;;;20.57;40.76;101546.19;5024261;28;20042;-75
2024/03/22 07:07:36;;;;;;;7.07;5.45;;;;;;;20.50;40.66;101530.19;5037058;28;20101;-74
2024/03/22 07:10:03;;;;;;;6.50;5.07;;;;;;;20.58;40.83;101529.31;5023667;28;20026;-75
2024/03/22 07:12:28;;;;;;;5.88;4.75;;;;;;;20.60;40.62;101540.56;5028719;28;20037;-74
2024/03/22 07:14:55;;;;;;;6.75;5.07;;;;;;;20.59;40.82;101527.50;5027031;28;20041;-74
2024/03/22 07:17:24;;;;;;;5.45;4.68;;;;;;;20.57;40.87;101522.38;5029493;28;20045;-74
2024/03/22 07:19:52;;;;;;;6.38;4.93;;;;;;;20.58;40.88;101524.03;5025833;28;20453;-75
2024/03/22 07:22:18;;;;;;;5.90;5.30;;;;;;;20.58;40.71;101520.56;5025228;28;20037;-74
2024/03/22 07:24:44;;;;;;;7.43;6.03;;;;;;;20.58;40.81;101521.38;5025271;28;20049;-74
2024/03/22 07:27:11;;;;;;;5.65;4.80;;;;;;;20.57;40.82;101525.03;5029739;28;20072;-74
2024/03/22 07:29:37;;;;;;;8.20;5.00;;;;;;;20.51;40.92;101501.91;5029033;28;20134;-74
2024/03/22 07:32:03;;;;;;;5.90;5.15;;;;;;;20.63;40.89;101502.34;5029769;28;20414;-74
2024/03/22 07:34:29;;;;;;;7.28;5.20;;;;;;;20.65;40.84;101508.31;5021816;28;20044;-74
2024/03/22 07:36:54;;;;;;;7.10;4.43;;;;;;;20.67;40.85;101516.91;5026045;28;20057;-74
2024/03/22 07:39:20;;;;;;;5.22;4.40;;;;;;;20.69;40.97;101513.09;5022944;28;20057;-74
2024/03/22 07:41:45;;;;;;;5.75;4.63;;;;;;;20.71;40.92;101518.22;5025747;28;20041;-74
2024/03/22 07:44:11;;;;;;;5.53;4.88;;;;;;;20.74;40.95;101523.19;5037212;28;20044;-74
2024/03/22 07:46:36;;;;;;;5.45;4.88;;;;;;;20.77;40.86;101528.97;5018632;28;20045;-74
2024/03/22 07:49:04;;;;;;;5.03;4.40;;;;;;;20.78;40.80;101527.97;5020149;28;20049;-74
2024/03/22 07:51:30;;;;;;;6.28;4.47;;;;;;;20.78;40.80;101529.78;5025135;28;20107;-74
2024/03/22 07:53:55;;;;;;;5.90;4.55;;;;;;;20.72;40.98;101511.94;5024628;28;20053;-74
2024/03/22 07:56:21;;;;;;;7.20;4.50;;;;;;;20.82;40.90;101525.78;5023807;28;20048;-74
2024/03/22 07:58:46;;;;;;;5.57;4.53;;;;;;;20.83;40.62;101524.81;5020383;28;20032;-74
2024/03/22 08:01:12;;;;;;;6.20;4.72;;;;;;;20.81;40.68;101518.84;5022075;28;20056;-74
2024/03/22 08:03:37;;;;;;;6.20;4.10;;;;;;;20.85;40.72;101520.19;5020249;28;20041;-74
2024/03/22 08:06:03;;;;;;;5.70;4.10;;;;;;;20.85;40.73;101520.19;5021149;28;20041;-75
2024/03/22 08:08:29;;;;;;;6.30;4.60;;;;;;;20.84;40.80;101515.88;5025559;28;20045;-74
2024/03/22 08:10:55;;;;;;;5.40;4.22;;;;;;;20.76;40.69;101507.94;5025615;28;20041;-74
2024/03/22 08:13:20;;;;;;;7.05;4.75;;;;;;;20.85;40.81;101527.31;5029370;28;20020;-74
2024/03/22 08:15:46;;;;;;;5.38;4.20;;;;;;;20.86;40.59;101531.59;5022579;28;20385;-75
2024/03/22 08:18:11;;;;;;;6.13;5.05;;;;;;;20.84;40.64;101531.78;5022440;28;20120;-73
2024/03/22 08:20:38;;;;;;;6.38;4.68;;;;;;;20.86;40.90;101521.84;5021961;28;20061;-76
2024/03/22 08:23:04;;;;;;;4.70;4.20;;;;;;;20.71;40.61;101497.06;5026250;28;20045;-76
2024/03/22 08:25:30;;;;;;;5.00;4.05;;;;;;;20.82;40.69;101515.22;5021845;28;20732;-76
2024/03/22 08:27:56;;;;;;;4.65;3.97;;;;;;;20.74;41.87;101512.59;5019383;28;20056;-75
2024/03/22 08:30:22;;;;;;;5.30;4.10;;;;;;;20.83;41.36;101519.53;5006445;28;20103;-76
2024/03/22 08:32:47;;;;;;;6.07;4.38;;;;;;;20.84;41.07;101523.00;5019879;28;20025;-75
2024/03/22 08:35:13;;;;;;;9.77;4.57;;;;;;;20.80;41.07;101511.91;5022509;28;20571;-75
2024/03/22 08:37:38;;;;;;;4.88;3.88;;;;;;;20.84;40.90;101520.38;5022549;28;20103;-75
2024/03/22 08:40:05;;;;;;;4.88;4.05;;;;;;;20.85;40.92;101514.06;5023640;28;20501;-76
2024/03/22 08:42:30;;;;;;;5.40;3.97;;;;;;;20.84;41.02;101509.78;5021369;28;20493;-75
2024/03/22 08:44:56;;;;;;;6.10;3.88;;;;;;;20.86;41.08;101505.13;5025107;28;20041;-77
2024/03/22 08:47:21;;;;;;;4.93;3.95;;;;;;;20.84;40.97;101509.78;5024380;28;20052;-76
2024/03/22 08:49:47;;;;;;;5.35;4.35;;;;;;;20.83;41.07;101498.34;5018728;28;20041;-76
2024/03/22 08:52:12;;;;;;;5.30;4.25;;;;;;;20.83;40.96;101506.31;5024190;28;20066;-76
2024/03/22 08:54:38;;;;;;;5.07;4.40;;;;;;;20.85;40.84;101504.31;5026290;28;20048;-76
2024/03/22 08:57:03;;;;;;;4.80;4.13;;;;;;;20.85;40.98;101499.00;5021758;28;20041;-76
2024/03/22 08:59:29;;;;;;;5.18;4.53;;;;;;;20.85;40.96;101499.00;5020807;28;20087;-76
2024/03/22 09:01:54;;;;;;;5.72;4.07;;;;;;;20.86;40.83;101497.19;5024755;28;20061;-76
2024/03/22 09:04:20;;;;;;;4.88;4.00;;;;;;;20.85;40.97;101492.88;5023554;28;20045;-75
2024/03/22 09:06:46;;;;;;;5.15;4.45;;;;;;;20.83;41.02;101505.47;5033733;28;20041;-75
2024/03/22 09:09:12;;;;;;;5.25;3.88;;;;;;;20.84;41.13;101502.66;5025171;28;20045;-76
2024/03/22 09:11:37;;;;;;;5.32;3.97;;;;;;;20.83;40.77;101510.78;5020792;28;20041;-75
2024/03/22 09:14:03;;;;;;;4.32;3.92;;;;;;;20.82;40.90;101509.91;5029664;28;20603;-76
2024/03/22 09:16:29;;;;;;;5.57;4.05;;;;;;;20.78;40.79;101500.66;5031357;28;20045;-75
2024/03/22 09:18:54;;;;;;;4.63;3.88;;;;;;;20.83;40.92;101502.81;5027778;28;20493;-76
2024/03/22 09:21:20;;;;;;;5.65;3.95;;;;;;;20.73;40.83;101482.66;5033486;28;20047;-76
2024/03/22 09:23:45;;;;;;;5.65;3.90;;;;;;;20.84;40.96;101500.00;5023696;28;20072;-76
2024/03/22 09:26:11;;;;;;;3.95;3.42;;;;;;;20.83;41.03;101508.13;5027966;28;20117;-75
2024/03/22 09:28:37;;;;;;;4.68;3.70;;;;;;;20.76;40.91;101506.13;5027087;28;20032;-75
2024/03/22 09:31:06;;;;;;;4.13;3.22;;;;;;;20.70;41.90;101503.34;5026929;28;20052;-71
2024/03/22 09:33:35;;;;;;;3.40;3.00;;;;;;;20.73;41.49;101503.81;5023463;28;20029;-77
2024/03/22 09:36:01;;;;;;;4.80;3.50;;;;;;;20.84;41.78;101505.31;5028337;28;20057;-77
2024/03/22 09:38:26;;;;;;;4.18;3.60;;;;;;;20.85;41.03;101506.94;5029559;28;20033;-77
2024/03/22 09:40:55;;;;;;;3.47;2.97;;;;;;;20.85;41.32;101511.41;5027975;28;20053;-77
2024/03/22 09:43:21;;;;;;;5.35;3.28;;;;;;;20.82;41.59;101496.69;5027499;28;20037;-76
2024/03/22 09:45:49;;;;;;;4.18;3.30;;;;;;;20.88;41.15;101513.72;5028211;28;20084;-76
2024/03/22 09:48:18;;;;;;;3.97;2.90;;;;;;;20.86;41.45;101503.31;5028991;28;20045;-76
2024/03/22 09:50:45;;;;;;;3.53;3.22;;;;;;;20.88;41.10;101508.44;5016966;28;20514;-75
2024/03/22 09:53:10;;;;;;;4.13;3.55;;;;;;;20.86;41.29;101505.13;5018822;28;20038;-76
2024/03/22 09:55:37;;;;;;;3.60;3.00;;;;;;;20.86;41.18;101503.31;5027268;28;20041;-77
2024/03/22 09:58:03;;;;;;;3.92;2.92;;;;;;;20.86;41.24;101505.13;5024310;28;20045;-75
2024/03/22 10:00:31;;;;;;;3.80;3.08;;;;;;;20.84;41.30;101515.88;5027516;28;20055;-75
2024/03/22 10:02:58;;;;;;;3.55;3.25;;;;;;;20.85;41.09;101511.41;5023759;28;20123;-74
2024/03/22 10:05:24;;;;;;;3.60;3.05;;;;;;;20.85;41.20;101514.06;5025000;28;20038;-75
2024/03/22 10:07:50;;;;;;;3.78;3.10;;;;;;;20.85;41.02;101514.91;5027668;28;20025;-76
2024/03/22 10:10:15;;;;;;;4.70;3.30;;;;;;;20.85;41.11;101511.41;5025273;28;20052;-76
2024/03/22 10:12:42;;;;;;;3.63;3.28;;;;;;;20.85;40.90;101498.19;5025685;28;20033;-75
2024/03/22 10:15:12;;;;;;;4.50;3.25;;;;;;;20.86;41.05;101505.13;5027478;28;20044;-77
2024/03/22 10:17:39;;;;;;;3.67;3.28;;;;;;;20.84;41.01;101505.31;5025611;28;20041;-76
2024/03/22 10:20:13;;;;;;;4.22;3.20;;;;;;;20.84;41.04;101510.59;5029006;28;20048;-76
2024/03/22 10:22:59;;;;;;;3.70;3.10;;;;;;;20.82;41.16;101509.91;5027159;28;20131;-76
2024/03/22 10:25:26;;;;;;;3.58;2.92;;;;;;;20.81;41.33;101498.50;5022647;28;20525;-76
2024/03/22 10:27:51;;;;;;;3.88;2.92;;;;;;;20.79;41.07;101513.72;5025085;28;20099;-76
2024/03/22 10:30:17;;;;;;;3.22;2.90;;;;;;;20.87;41.20;101520.84;5022397;28;20053;-74
2024/03/22 10:32:44;;;;;;;3.30;3.00;;;;;;;20.87;41.04;101512.91;5026338;28;20033;-76
2024/03/22 10:35:14;;;;;;;3.22;2.90;;;;;;;20.84;41.12;101515.06;5026468;28;20041;-75
2024/03/22 10:37:40;;;;;;;3.75;3.30;;;;;;;20.88;41.04;101511.91;5022775;28;20037;-74
2024/03/22 10:40:11;;;;;;;4.25;3.00;;;;;;;20.80;41.40;101511.91;5023334;28;20588;-71
2024/03/22 10:42:38;;;;;;;3.25;2.95;;;;;;;20.84;41.34;101507.94;5017426;28;20424;-72
2024/03/22 10:45:05;;;;;;;3.15;2.70;;;;;;;20.89;41.52;101515.38;4964619;28;20556;-74
2024/03/22 10:47:32;;;;;;;4.07;2.97;;;;;;;20.94;41.46;101497.97;5023494;28;20060;-73
2024/03/22 10:50:11;;;;;;;2.97;2.60;;;;;;;20.98;41.44;101499.28;5023212;28;20037;-72
2024/03/22 10:52:47;;;;;;;3.95;2.50;;;;;;;20.95;41.29;101504.91;5026024;28;20448;-72
2024/03/22 10:55:22;;;;;;;3.75;2.90;;;;;;;20.95;41.74;101509.38;5026068;28;20136;-71
2024/03/22 10:57:48;;;;;;;2.95;2.65;;;;;;;20.93;41.88;101500.78;5027011;28;20045;-75
2024/03/22 11:00:15;;;;;;;3.17;2.40;;;;;;;20.86;41.91;101484.78;5004058;28;20167;-75
2024/03/22 11:02:45;;;;;;;2.53;2.30;;;;;;;20.95;41.52;101494.31;5004720;28;20041;-76
2024/03/22 11:05:17;;;;;;;2.53;2.10;;;;;;;20.97;42.17;101494.97;4986568;28;20053;-75
2024/03/22 11:07:46;;;;;;;2.55;2.28;;;;;;;20.98;41.33;101487.84;5028958;28;20120;-75
2024/03/22 11:10:12;;;;;;;2.80;2.40;;;;;;;21.01;42.01;101482.25;5006240;28;20038;-76
2024/03/22 11:12:39;;;;;;;2.53;2.30;;;;;;;21.10;41.46;101494.44;5021992;28;20041;-78
2024/03/22 11:15:05;;;;;;;3.00;1.98;;;;;;;21.13;41.55;101489.63;4981243;28;20041;-74
2024/03/22 11:17:31;;;;;;;6.03;2.58;;;;;;;21.28;42.23;101491.59;5024636;28;20037;-69
2024/03/22 11:19:57;;;;;;;4.20;2.20;;;;;;;21.21;41.65;101483.47;4979683;28;20343;-71